Aérodrome :
LOGIN :

S'inscrire | Disclaimer

   EN    FR    IT 

 










Légende :    VFR   VFR Marginal   IFR   IFR Intensif   IFR Très Intensif
Visi : 
Plafond : 
>= 8 km
>= 3000ft
5 à 8 km
1000 à 3000 ft
1500m à 5 km
500 à 1000 ft
800 à 1500m
200 à 500 ft
< 800m
< 200 ft
Symboles :   Orages  Brouillard  Fortes neiges  Fortes précipitations  Vent > 20 kt
SIGMETs :   Divers  Orages  Givrage  Turbulence  Onde Orograph.  Cendres Volcan.






- Altitude de l'aérodrome : 90 ft
- Code IATA : NTE


LFRS - Nantes

DERNIER METAR :
  • 232030Z AUTO 23008KT 210V270 7000 OVC003 11/11 Q1030 TEMPO 1200 DZ OVC001

METARs EXPIRÉS :
  • 232000Z AUTO 24007KT 5000 +RADZ BR OVC003 11/11 Q1030 TEMPO 1200 DZ OVC001
  • 231930Z AUTO 23008KT 3900 +RADZ BR OVC003 11/11 Q1030 TEMPO 1200 DZ OVC001
  • 231900Z AUTO 23007KT 190V260 4400 +RADZ BR OVC003 11/11 Q1030 TEMPO 1200 DZ OVC001
  • 231830Z AUTO 23008KT 190V250 6000 OVC004 11/11 Q1030 TEMPO 1200 DZ OVC001
  • 231800Z AUTO 24008KT 210V270 6000 +RADZ OVC004 11/11 Q1029 TEMPO 1200 DZ OVC001

TAF AMD TAF LFRS
Valide du 23 à 18h jusqu'au 25 à 00h UTC


231808Z 2318/2424 24010KT 9000 OVC010
TEMPO 2318/2412 3000 DZ OVC004
TEMPO 2318/2408 1200 DZ OVC001
BECMG 2410/2413 23015G25KT
BECMG 2418/2420 23012KT 3000 RA OVC005
ATIS : +33 2 40 05 12 74



MET'MAP, la Météo Aéronautique d'un coup d'oeil ! - Copyright ORBIFLY Décembre 2007 - Disclaimer

ORBIFLY MET'MAP TEAM :

Programmation & Développement : Alexandra Zaïnal
Sur une idée originale de : Baudouin d'Aumeries
Assistance à la programmation : Marc-Olivier Méhu
Soutien technique & logistique : Manuel Goepfert

Contact : metmap@orbifly.com




SOURCES & CREDITS :

   NOAA